createdAt,value
2018-12-13T00:02:41.895Z,9.53
2018-12-13T00:07:37.719Z,10.67
2018-12-13T00:12:33.502Z,8.80
2018-12-13T00:17:29.309Z,10.57
2018-12-13T00:22:25.149Z,9.13
2018-12-13T00:27:20.943Z,8.70
2018-12-13T00:32:16.716Z,8.93
2018-12-13T00:37:12.472Z,8.63
2018-12-13T00:42:08.228Z,11.70
2018-12-13T00:47:04.014Z,8.37
2018-12-13T00:51:59.831Z,9.43
2018-12-13T00:56:55.584Z,11.33
2018-12-13T01:01:51.529Z,10.23
2018-12-13T01:06:47.322Z,9.53
2018-12-13T01:11:43.247Z,9.33
2018-12-13T01:16:39.068Z,10.07
2018-12-13T01:21:34.844Z,10.47
2018-12-13T01:26:30.600Z,11.60
2018-12-13T01:31:26.594Z,10.77
2018-12-13T01:36:22.384Z,9.50
2018-12-13T01:41:18.134Z,10.27
2018-12-13T01:46:13.911Z,13.20
2018-12-13T01:51:09.690Z,9.63
2018-12-13T01:56:05.487Z,9.83
2018-12-13T02:01:01.255Z,9.97
2018-12-13T02:05:57.017Z,11.17
2018-12-13T02:10:52.829Z,10.70
2018-12-13T02:15:48.597Z,12.70
2018-12-13T02:20:44.381Z,14.17
2018-12-13T02:25:40.203Z,11.07
2018-12-13T02:30:36.028Z,12.70
2018-12-13T02:35:31.859Z,11.83
2018-12-13T02:40:27.651Z,11.27
2018-12-13T02:45:23.424Z,11.43
2018-12-13T02:50:19.217Z,11.30
2018-12-13T02:55:14.987Z,12.30
2018-12-13T03:00:10.787Z,11.87
2018-12-13T03:05:06.594Z,11.43
2018-12-13T03:10:02.837Z,10.07
2018-12-13T03:14:58.607Z,12.13
2018-12-13T03:19:54.407Z,11.83
2018-12-13T03:24:50.216Z,11.47
2018-12-13T03:29:46.003Z,14.30
2018-12-13T03:34:41.966Z,11.67
2018-12-13T03:39:37.745Z,12.80
2018-12-13T03:44:33.537Z,14.53
2018-12-13T03:49:29.353Z,11.20
2018-12-13T03:54:25.220Z,13.03
2018-12-13T03:59:20.998Z,15.23
2018-12-13T04:04:16.802Z,15.63
2018-12-13T04:09:12.628Z,17.40
2018-12-13T04:14:08.406Z,13.27
2018-12-13T04:19:04.221Z,13.97
2018-12-13T04:23:59.992Z,15.47
2018-12-13T04:28:55.800Z,15.77
2018-12-13T04:33:51.598Z,14.73
2018-12-13T04:38:47.373Z,15.30
2018-12-13T04:43:43.157Z,17.07
2018-12-13T04:48:38.941Z,15.30
2018-12-13T04:53:34.732Z,17.17
2018-12-13T04:58:30.527Z,16.37
2018-12-13T05:03:26.436Z,21.23
2018-12-13T05:08:22.228Z,19.30
2018-12-13T05:13:18.208Z,18.83
2018-12-13T05:18:13.989Z,16.07
2018-12-13T05:23:09.770Z,19.53
2018-12-13T05:28:05.580Z,19.30
2018-12-13T05:33:01.373Z,21.27
2018-12-13T05:37:57.147Z,19.63
2018-12-13T05:42:52.926Z,20.87
2018-12-13T05:47:48.699Z,19.10
2018-12-13T05:52:44.512Z,22.87
2018-12-13T05:57:40.283Z,23.93
2018-12-13T06:02:36.104Z,21.33
2018-12-13T06:07:31.891Z,24.10
2018-12-13T06:12:27.679Z,23.53
2018-12-13T06:17:23.497Z,21.40
2018-12-13T06:22:19.283Z,30.40
2018-12-13T06:27:15.105Z,34.20
2018-12-13T06:32:10.902Z,26.30
2018-12-13T06:37:06.697Z,25.43
2018-12-13T06:42:02.533Z,26.67
2018-12-13T06:46:58.307Z,23.23
2018-12-13T06:51:54.113Z,23.10
2018-12-13T06:56:49.917Z,26.60
2018-12-13T07:01:45.743Z,25.80
2018-12-13T07:06:41.729Z,22.67
2018-12-13T07:11:37.646Z,23.17
2018-12-13T07:16:33.470Z,20.77
2018-12-13T07:21:29.307Z,25.67
2018-12-13T07:26:25.110Z,29.60
2018-12-13T07:31:20.910Z,24.83
2018-12-13T07:36:16.714Z,29.20
2018-12-13T07:41:12.503Z,28.80
2018-12-13T07:46:08.399Z,26.97
2018-12-13T07:51:04.236Z,27.83
2018-12-13T07:56:00.051Z,26.63
2018-12-13T08:00:55.846Z,23.83
2018-12-13T08:05:51.652Z,22.37
2018-12-13T08:10:47.476Z,25.33
2018-12-13T08:15:43.245Z,26.30
2018-12-13T08:20:39.025Z,27.17
2018-12-13T08:25:34.824Z,27.30
2018-12-13T08:30:30.608Z,26.47
2018-12-13T08:35:26.705Z,23.37
2018-12-13T08:40:22.467Z,23.80
2018-12-13T08:45:18.212Z,26.70
2018-12-13T08:50:14.010Z,26.77
2018-12-13T08:55:09.776Z,22.90
2018-12-13T09:00:05.688Z,22.47
2018-12-13T09:05:01.470Z,21.57
2018-12-13T09:09:57.234Z,21.40
2018-12-13T09:14:52.986Z,21.43
2018-12-13T09:19:48.754Z,21.13
2018-12-13T09:24:44.516Z,20.07
2018-12-13T09:29:40.269Z,22.73
2018-12-13T09:34:36.078Z,20.93
2018-12-13T09:39:31.837Z,19.43
2018-12-13T09:44:27.592Z,19.63
2018-12-13T09:49:23.412Z,18.33
2018-12-13T09:54:19.185Z,18.57
2018-12-13T09:59:14.982Z,16.87
2018-12-13T10:04:10.818Z,20.90
2018-12-13T10:09:06.779Z,18.03
2018-12-13T10:14:02.660Z,18.57
2018-12-13T10:18:58.400Z,18.80
2018-12-13T10:23:54.191Z,16.27
2018-12-13T10:28:49.964Z,16.97
2018-12-13T10:33:45.766Z,15.90
2018-12-13T10:38:41.875Z,15.30
2018-12-13T10:43:37.635Z,18.67
2018-12-13T10:48:33.400Z,18.50
2018-12-13T10:53:29.199Z,17.03
2018-12-13T10:58:24.977Z,16.40
2018-12-13T11:03:26.900Z,21.70
2018-12-13T11:08:22.764Z,17.97
2018-12-13T11:13:18.521Z,16.87
2018-12-13T11:18:14.408Z,17.00
2018-12-13T11:23:10.165Z,15.40
2018-12-13T11:28:12.255Z,16.23
2018-12-13T11:33:08.239Z,15.53
2018-12-13T11:38:04.120Z,15.73
2018-12-13T11:43:00.980Z,17.00
2018-12-13T11:47:56.765Z,15.63
2018-12-13T11:52:52.580Z,18.03
2018-12-13T11:57:48.463Z,17.07
2018-12-13T12:02:44.218Z,15.90
2018-12-13T12:07:39.998Z,15.83
2018-12-13T12:12:35.767Z,15.63
2018-12-13T12:17:31.836Z,15.07
2018-12-13T12:22:27.614Z,15.57
2018-12-13T12:27:23.378Z,17.37
2018-12-13T12:32:19.264Z,14.30
2018-12-13T12:37:15.021Z,14.67
2018-12-13T12:42:10.855Z,14.13
2018-12-13T12:47:06.627Z,17.80
2018-12-13T12:52:03.608Z,16.00
2018-12-13T12:56:59.380Z,15.10
2018-12-13T13:01:55.354Z,17.83
2018-12-13T13:06:51.149Z,14.57
2018-12-13T13:11:46.887Z,14.17
2018-12-13T13:16:42.662Z,15.23
2018-12-13T13:21:38.416Z,17.83
2018-12-13T13:26:34.218Z,14.13
2018-12-13T13:31:30.004Z,16.10
2018-12-13T13:36:25.778Z,15.50
2018-12-13T13:41:21.563Z,18.10
2018-12-13T13:46:17.433Z,14.67
2018-12-13T13:51:13.287Z,16.03
2018-12-13T13:56:09.041Z,17.33
2018-12-13T14:01:04.823Z,13.27
2018-12-13T14:06:00.771Z,14.77
2018-12-13T14:10:56.545Z,18.23
2018-12-13T14:15:52.412Z,15.83
2018-12-13T14:20:48.202Z,14.33
2018-12-13T14:25:44.023Z,15.77
2018-12-13T14:30:39.792Z,15.53
2018-12-13T14:35:35.562Z,17.07
2018-12-13T14:40:31.318Z,12.07
2018-12-13T14:45:27.099Z,13.77
2018-12-13T14:50:22.890Z,16.23
2018-12-13T14:55:18.685Z,15.80
2018-12-13T15:00:14.566Z,15.10
2018-12-13T15:05:10.668Z,16.80
2018-12-13T15:10:06.471Z,16.00
2018-12-13T15:15:02.377Z,13.40
2018-12-13T15:19:58.138Z,17.60
2018-12-13T15:24:53.900Z,14.97
2018-12-13T15:29:49.685Z,17.27
2018-12-13T15:34:45.472Z,14.53
2018-12-13T15:39:41.258Z,16.00
2018-12-13T15:44:37.023Z,18.73
2018-12-13T15:49:33.009Z,18.27
2018-12-13T15:54:28.826Z,19.33
2018-12-13T15:59:24.626Z,17.37
2018-12-13T16:04:20.421Z,16.63
2018-12-13T16:09:16.164Z,16.90
2018-12-13T16:14:11.941Z,18.00
2018-12-13T16:19:07.726Z,22.10
2018-12-13T16:24:03.514Z,18.07
2018-12-13T16:28:59.289Z,18.40
2018-12-13T16:33:55.093Z,17.23
2018-12-13T16:38:50.828Z,18.43
2018-12-13T16:43:47.603Z,17.33
2018-12-13T16:48:43.434Z,24.17
2018-12-13T16:53:39.238Z,15.17
2018-12-13T16:58:35.000Z,16.30
2018-12-13T17:03:33.816Z,16.67
2018-12-13T17:08:29.576Z,16.60
2018-12-13T17:13:25.365Z,16.27
2018-12-13T17:18:21.126Z,17.73
2018-12-13T17:23:16.926Z,16.10
2018-12-13T17:28:12.691Z,16.07
2018-12-13T17:33:08.479Z,17.60
2018-12-13T17:38:04.253Z,18.07
2018-12-13T17:43:00.003Z,18.37
2018-12-13T17:47:55.760Z,17.90
2018-12-13T17:52:51.541Z,22.50
2018-12-13T17:57:47.291Z,18.60
2018-12-13T18:02:43.068Z,19.33
2018-12-13T18:07:38.833Z,25.23
2018-12-13T18:12:34.633Z,24.90
2018-12-13T18:17:30.462Z,18.53
2018-12-13T18:22:26.259Z,17.50
2018-12-13T18:27:22.059Z,18.33
2018-12-13T18:32:18.060Z,20.80
2018-12-13T18:37:13.892Z,19.93
2018-12-13T18:42:09.655Z,15.87
2018-12-13T18:47:05.543Z,19.87
2018-12-13T18:52:01.356Z,18.87
2018-12-13T18:56:57.167Z,17.93
2018-12-13T19:01:53.340Z,18.33
2018-12-13T19:06:49.123Z,17.93
2018-12-13T19:11:44.902Z,22.27
2018-12-13T19:16:40.789Z,19.63
2018-12-13T19:21:36.562Z,21.13
2018-12-13T19:26:32.339Z,20.07
2018-12-13T19:31:28.106Z,16.97
2018-12-13T19:36:23.852Z,19.77
2018-12-13T19:41:19.642Z,20.37
2018-12-13T19:46:15.412Z,17.67
2018-12-13T19:51:11.330Z,19.30
2018-12-13T19:56:07.097Z,20.70
2018-12-13T20:01:02.999Z,19.93
2018-12-13T20:05:58.858Z,20.57
2018-12-13T20:10:54.910Z,19.67
2018-12-13T20:15:50.800Z,23.80
2018-12-13T20:20:46.579Z,20.63
2018-12-13T20:25:42.417Z,19.13
2018-12-13T20:30:38.506Z,17.87
2018-12-13T20:35:34.315Z,17.40
2018-12-13T20:40:30.244Z,19.73
2018-12-13T20:45:26.038Z,20.07
2018-12-13T20:50:21.954Z,20.57
2018-12-13T20:55:17.779Z,19.53
2018-12-13T21:00:13.592Z,19.03
2018-12-13T21:05:09.378Z,18.73
2018-12-13T21:10:05.619Z,19.10
2018-12-13T21:15:01.404Z,21.63
2018-12-13T21:19:57.325Z,23.37
2018-12-13T21:24:53.073Z,20.27
2018-12-13T21:29:48.854Z,19.03
2018-12-13T21:34:44.630Z,19.90
2018-12-13T21:39:40.384Z,21.97
2018-12-13T21:44:36.178Z,20.67
2018-12-13T21:49:31.962Z,19.53
2018-12-13T21:54:27.746Z,19.13
2018-12-13T21:59:23.554Z,20.87
2018-12-13T22:04:19.361Z,20.00
2018-12-13T22:09:15.121Z,23.07
2018-12-13T22:14:10.901Z,22.73
2018-12-13T22:19:06.675Z,21.73
2018-12-13T22:24:02.473Z,20.87
2018-12-13T22:28:58.296Z,20.40
2018-12-13T22:33:54.080Z,20.77
2018-12-13T22:38:49.875Z,21.20
2018-12-13T22:43:45.686Z,19.13
2018-12-13T22:48:41.495Z,22.03
2018-12-13T22:53:37.289Z,19.67
2018-12-13T22:58:33.113Z,22.83
2018-12-13T23:03:28.853Z,19.73
2018-12-13T23:08:24.614Z,20.17
2018-12-13T23:13:20.432Z,22.47
2018-12-13T23:18:16.229Z,19.43
2018-12-13T23:23:11.993Z,19.40
2018-12-13T23:28:07.753Z,21.63
2018-12-13T23:33:03.517Z,19.00
2018-12-13T23:37:59.280Z,19.47
2018-12-13T23:42:55.103Z,18.30
2018-12-13T23:47:50.875Z,20.83
2018-12-13T23:52:46.704Z,23.07
2018-12-13T23:57:42.524Z,20.83
